sensor_id;sensor_type;location;lat;lon;timestamp;temperature;humidity
53368;DHT22;39271;45.618;20.024;2022-07-29T00:04:21;589.40;1817.60
53368;DHT22;39271;45.618;20.024;2022-07-29T00:06:47;589.10;1817.60
53368;DHT22;39271;45.618;20.024;2022-07-29T00:09:13;589.40;1817.60
53368;DHT22;39271;45.618;20.024;2022-07-29T00:11:39;589.40;1792.00
53368;DHT22;39271;45.618;20.024;2022-07-29T00:14:05;589.40;1817.60
53368;DHT22;39271;45.618;20.024;2022-07-29T00:16:31;589.30;1817.60
53368;DHT22;39271;45.618;20.024;2022-07-29T00:18:57;589.30;1792.00
53368;DHT22;39271;45.618;20.024;2022-07-29T00:24:47;589.20;1817.60
53368;DHT22;39271;45.618;20.024;2022-07-29T00:27:14;589.10;1843.20
53368;DHT22;39271;45.618;20.024;2022-07-29T00:29:40;589.20;1817.60
53368;DHT22;39271;45.618;20.024;2022-07-29T00:32:06;589.20;1817.60
53368;DHT22;39271;45.618;20.024;2022-07-29T00:34:31;589.20;1843.20
53368;DHT22;39271;45.618;20.024;2022-07-29T00:37:16;589.30;1843.20
53368;DHT22;39271;45.618;20.024;2022-07-29T00:39:44;589.10;1843.20
53368;DHT22;39271;45.618;20.024;2022-07-29T00:42:13;589.40;1817.60
53368;DHT22;39271;45.618;20.024;2022-07-29T00:44:42;589.40;1843.20
53368;DHT22;39271;45.618;20.024;2022-07-29T00:47:09;589.40;1843.20
53368;DHT22;39271;45.618;20.024;2022-07-29T00:49:36;589.40;1817.60
53368;DHT22;39271;45.618;20.024;2022-07-29T00:55:26;589.40;1868.80
53368;DHT22;39271;45.618;20.024;2022-07-29T00:57:52;589.10;1843.20
53368;DHT22;39271;45.618;20.024;2022-07-29T01:00:24;589.30;1843.20
53368;DHT22;39271;45.618;20.024;2022-07-29T01:02:50;589.30;1868.80
53368;DHT22;39271;45.618;20.024;2022-07-29T01:05:24;589.40;1843.20
53368;DHT22;39271;45.618;20.024;2022-07-29T01:07:53;589.40;1843.20
53368;DHT22;39271;45.618;20.024;2022-07-29T01:10:20;589.40;1843.20
53368;DHT22;39271;45.618;20.024;2022-07-29T01:12:50;589.40;1843.20
53368;DHT22;39271;45.618;20.024;2022-07-29T01:15:16;589.50;1843.20
53368;DHT22;39271;45.618;20.024;2022-07-29T01:18:03;589.50;1817.60
53368;DHT22;39271;45.618;20.024;2022-07-29T01:20:52;589.50;1843.20
53368;DHT22;39271;45.618;20.024;2022-07-29T01:23:58;589.60;1843.20
53368;DHT22;39271;45.618;20.024;2022-07-29T01:26:47;589.70;1843.20
53368;DHT22;39271;45.618;20.024;2022-07-29T01:29:28;589.70;1843.20
53368;DHT22;39271;45.618;20.024;2022-07-29T01:32:03;589.70;1843.20
53368;DHT22;39271;45.618;20.024;2022-07-29T01:34:41;589.70;1843.20
53368;DHT22;39271;45.618;20.024;2022-07-29T01:39:55;589.70;1843.20
53368;DHT22;39271;45.618;20.024;2022-07-29T01:42:43;589.70;1843.20
53368;DHT22;39271;45.618;20.024;2022-07-29T01:48:22;589.60;1843.20
53368;DHT22;39271;45.618;20.024;2022-07-29T01:51:16;589.60;1868.80
53368;DHT22;39271;45.618;20.024;2022-07-29T01:54:04;589.60;1868.80
53368;DHT22;39271;45.618;20.024;2022-07-29T01:56:36;589.70;1894.40
53368;DHT22;39271;45.618;20.024;2022-07-29T01:59:08;589.50;1894.40
53368;DHT22;39271;45.618;20.024;2022-07-29T02:04:58;589.50;1920.00
53368;DHT22;39271;45.618;20.024;2022-07-29T02:07:29;589.40;1920.00
53368;DHT22;39271;45.618;20.024;2022-07-29T02:09:58;589.30;1920.00
53368;DHT22;39271;45.618;20.024;2022-07-29T02:12:30;589.40;1945.60
53368;DHT22;39271;45.618;20.024;2022-07-29T02:15:02;589.30;1945.60
53368;DHT22;39271;45.618;20.024;2022-07-29T02:17:37;589.20;1971.20
53368;DHT22;39271;45.618;20.024;2022-07-29T02:20:04;589.20;1971.20
53368;DHT22;39271;45.618;20.024;2022-07-29T02:22:37;589.10;1971.20
53368;DHT22;39271;45.618;20.024;2022-07-29T02:25:07;589.10;1996.80
53368;DHT22;39271;45.618;20.024;2022-07-29T02:27:35;588.90;1996.80
53368;DHT22;39271;45.618;20.024;2022-07-29T02:30:03;588.80;2022.40
53368;DHT22;39271;45.618;20.024;2022-07-29T02:32:40;588.80;2048.00
53368;DHT22;39271;45.618;20.024;2022-07-29T02:35:14;588.80;2073.60
53368;DHT22;39271;45.618;20.024;2022-07-29T02:37:41;564.10;2099.20
53368;DHT22;39271;45.618;20.024;2022-07-29T02:40:10;564.00;2124.80
53368;DHT22;39271;45.618;20.024;2022-07-29T02:42:42;564.10;2150.40
53368;DHT22;39271;45.618;20.024;2022-07-29T02:45:10;564.00;2150.40
53368;DHT22;39271;45.618;20.024;2022-07-29T02:47:43;564.00;2201.60
53368;DHT22;39271;45.618;20.024;2022-07-29T02:50:20;564.10;2201.60
53368;DHT22;39271;45.618;20.024;2022-07-29T02:53:00;564.10;2227.20
53368;DHT22;39271;45.618;20.024;2022-07-29T02:55:40;564.10;2252.80
53368;DHT22;39271;45.618;20.024;2022-07-29T02:58:34;588.80;2304.00
53368;DHT22;39271;45.618;20.024;2022-07-29T03:01:15;588.80;2304.00
53368;DHT22;39271;45.618;20.024;2022-07-29T03:03:44;588.80;2304.00
53368;DHT22;39271;45.618;20.024;2022-07-29T03:06:13;588.80;2304.00
53368;DHT22;39271;45.618;20.024;2022-07-29T03:08:40;588.80;2304.00
53368;DHT22;39271;45.618;20.024;2022-07-29T03:14:33;588.90;2329.60
53368;DHT22;39271;45.618;20.024;2022-07-29T03:17:02;588.90;2329.60
53368;DHT22;39271;45.618;20.024;2022-07-29T03:19:28;588.90;2329.60
53368;DHT22;39271;45.618;20.024;2022-07-29T03:25:19;588.90;2329.60
53368;DHT22;39271;45.618;20.024;2022-07-29T03:27:47;588.90;2329.60
53368;DHT22;39271;45.618;20.024;2022-07-29T03:30:13;588.90;2355.20
53368;DHT22;39271;45.618;20.024;2022-07-29T03:32:41;589.40;2355.20
53368;DHT22;39271;45.618;20.024;2022-07-29T03:35:12;588.90;2355.20
53368;DHT22;39271;45.618;20.024;2022-07-29T03:37:53;588.80;2380.80
53368;DHT22;39271;45.618;20.024;2022-07-29T03:43:39;588.80;2406.40
53368;DHT22;39271;45.618;20.024;2022-07-29T03:56:50;589.10;2406.40
53368;DHT22;39271;45.618;20.024;2022-07-29T03:59:18;589.20;2406.40
53368;DHT22;39271;45.618;20.024;2022-07-29T04:01:46;589.30;2432.00
53368;DHT22;39271;45.618;20.024;2022-07-29T04:04:14;589.40;2432.00
53368;DHT22;39271;45.618;20.024;2022-07-29T04:06:43;589.40;2406.40
53368;DHT22;39271;45.618;20.024;2022-07-29T04:09:12;589.50;2406.40
53368;DHT22;39271;45.618;20.024;2022-07-29T04:11:41;589.60;2355.20
53368;DHT22;39271;45.618;20.024;2022-07-29T04:14:10;589.60;2355.20
53368;DHT22;39271;45.618;20.024;2022-07-29T04:16:37;589.50;2355.20
53368;DHT22;39271;45.618;20.024;2022-07-29T04:19:05;589.70;2329.60
53368;DHT22;39271;45.618;20.024;2022-07-29T04:24:55;614.40;2355.20
53368;DHT22;39271;45.618;20.024;2022-07-29T04:27:20;614.40;2380.80
53368;DHT22;39271;45.618;20.024;2022-07-29T04:29:46;614.40;2355.20
53368;DHT22;39271;45.618;20.024;2022-07-29T04:32:12;614.40;2380.80
53368;DHT22;39271;45.618;20.024;2022-07-29T04:34:38;614.50;2355.20
53368;DHT22;39271;45.618;20.024;2022-07-29T04:37:03;614.40;2380.80
53368;DHT22;39271;45.618;20.024;2022-07-29T18:11:49;794.40;1459.20
53368;DHT22;39271;45.618;20.024;2022-07-29T18:17:58;793.90;1484.80
53368;DHT22;39271;45.618;20.024;2022-07-29T18:20:25;793.70;1484.80
53368;DHT22;39271;45.618;20.024;2022-07-29T18:22:51;768.60;1484.80
53368;DHT22;39271;45.618;20.024;2022-07-29T18:25:17;768.60;1484.80
53368;DHT22;39271;45.618;20.024;2022-07-29T18:27:57;768.50;1510.40
53368;DHT22;39271;45.618;20.024;2022-07-29T18:30:27;768.30;1510.40
53368;DHT22;39271;45.618;20.024;2022-07-29T18:32:53;768.20;1510.40
53368;DHT22;39271;45.618;20.024;2022-07-29T18:35:19;768.20;1536.00
53368;DHT22;39271;45.618;20.024;2022-07-29T18:37:48;768.10;1536.00
53368;DHT22;39271;45.618;20.024;2022-07-29T18:40:14;768.10;1510.40
53368;DHT22;39271;45.618;20.024;2022-07-29T18:42:40;768.00;1536.00
53368;DHT22;39271;45.618;20.024;2022-07-29T18:45:07;743.30;1536.00
53368;DHT22;39271;45.618;20.024;2022-07-29T18:47:33;743.20;1536.00
53368;DHT22;39271;45.618;20.024;2022-07-29T18:49:59;743.20;1561.60
53368;DHT22;39271;45.618;20.024;2022-07-29T18:52:25;743.00;1561.60
53368;DHT22;39271;45.618;20.024;2022-07-29T18:54:51;743.00;1587.20
53368;DHT22;39271;45.618;20.024;2022-07-29T18:57:17;743.00;1587.20
53368;DHT22;39271;45.618;20.024;2022-07-29T18:59:43;742.90;1587.20
53368;DHT22;39271;45.618;20.024;2022-07-29T19:02:09;742.80;1587.20
53368;DHT22;39271;45.618;20.024;2022-07-29T19:04:35;742.80;1587.20
53368;DHT22;39271;45.618;20.024;2022-07-29T19:07:00;742.80;1587.20
53368;DHT22;39271;45.618;20.024;2022-07-29T19:09:28;742.80;1587.20
53368;DHT22;39271;45.618;20.024;2022-07-29T19:11:54;742.70;1612.80
53368;DHT22;39271;45.618;20.024;2022-07-29T19:14:20;742.70;1612.80
53368;DHT22;39271;45.618;20.024;2022-07-29T19:16:46;742.60;1612.80
53368;DHT22;39271;45.618;20.024;2022-07-29T19:19:12;742.70;1638.40
53368;DHT22;39271;45.618;20.024;2022-07-29T19:21:41;742.60;1638.40
53368;DHT22;39271;45.618;20.024;2022-07-29T19:24:07;742.60;1638.40
53368;DHT22;39271;45.618;20.024;2022-07-29T19:26:34;742.60;1638.40
53368;DHT22;39271;45.618;20.024;2022-07-29T19:29:01;742.50;1638.40
53368;DHT22;39271;45.618;20.024;2022-07-29T19:31:32;742.50;1664.00
53368;DHT22;39271;45.618;20.024;2022-07-29T19:33:58;742.50;1664.00
53368;DHT22;39271;45.618;20.024;2022-07-29T19:36:24;742.50;1664.00
53368;DHT22;39271;45.618;20.024;2022-07-29T19:38:51;742.40;1664.00
53368;DHT22;39271;45.618;20.024;2022-07-29T19:41:17;742.40;1715.20
53368;DHT22;39271;45.618;20.024;2022-07-29T19:43:43;717.70;1689.60
53368;DHT22;39271;45.618;20.024;2022-07-29T19:46:09;717.60;1689.60
53368;DHT22;39271;45.618;20.024;2022-07-29T19:48:35;717.70;1715.20
53368;DHT22;39271;45.618;20.024;2022-07-29T19:55:11;717.60;1715.20
53368;DHT22;39271;45.618;20.024;2022-07-29T19:57:37;717.60;1740.80
53368;DHT22;39271;45.618;20.024;2022-07-29T20:00:06;717.50;1715.20
53368;DHT22;39271;45.618;20.024;2022-07-29T20:02:35;717.50;1715.20
53368;DHT22;39271;45.618;20.024;2022-07-29T20:05:01;717.40;1715.20
53368;DHT22;39271;45.618;20.024;2022-07-29T20:07:27;717.50;1740.80
53368;DHT22;39271;45.618;20.024;2022-07-29T20:09:52;717.40;1740.80
53368;DHT22;39271;45.618;20.024;2022-07-29T20:12:21;717.40;1715.20
53368;DHT22;39271;45.618;20.024;2022-07-29T20:14:50;717.40;1715.20
53368;DHT22;39271;45.618;20.024;2022-07-29T20:17:17;717.40;1740.80
53368;DHT22;39271;45.618;20.024;2022-07-29T20:19:47;717.30;1766.40
53368;DHT22;39271;45.618;20.024;2022-07-29T20:22:15;717.20;1792.00
53368;DHT22;39271;45.618;20.024;2022-07-29T20:24:42;717.20;1766.40
53368;DHT22;39271;45.618;20.024;2022-07-29T20:27:07;717.20;1792.00
53368;DHT22;39271;45.618;20.024;2022-07-29T20:29:34;717.10;1792.00
53368;DHT22;39271;45.618;20.024;2022-07-29T20:32:00;717.10;1792.00
53368;DHT22;39271;45.618;20.024;2022-07-29T20:34:26;717.20;1792.00
53368;DHT22;39271;45.618;20.024;2022-07-29T20:36:52;717.10;1792.00
53368;DHT22;39271;45.618;20.024;2022-07-29T20:39:40;717.10;1792.00
53368;DHT22;39271;45.618;20.024;2022-07-29T20:42:39;717.10;1792.00
53368;DHT22;39271;45.618;20.024;2022-07-29T20:45:05;717.10;1766.40
53368;DHT22;39271;45.618;20.024;2022-07-29T20:47:31;717.10;1792.00
53368;DHT22;39271;45.618;20.024;2022-07-29T20:49:57;717.10;1817.60
53368;DHT22;39271;45.618;20.024;2022-07-29T20:52:23;717.10;1817.60
53368;DHT22;39271;45.618;20.024;2022-07-29T20:54:49;717.00;1792.00
53368;DHT22;39271;45.618;20.024;2022-07-29T20:57:15;717.00;1792.00
53368;DHT22;39271;45.618;20.024;2022-07-29T20:59:40;717.00;1817.60
53368;DHT22;39271;45.618;20.024;2022-07-29T21:02:09;716.90;1817.60
53368;DHT22;39271;45.618;20.024;2022-07-29T21:04:34;716.90;1817.60
53368;DHT22;39271;45.618;20.024;2022-07-29T21:07:02;717.00;1817.60
53368;DHT22;39271;45.618;20.024;2022-07-29T21:09:28;716.80;1843.20
53368;DHT22;39271;45.618;20.024;2022-07-29T21:11:54;716.90;1843.20
53368;DHT22;39271;45.618;20.024;2022-07-29T21:14:20;716.80;1843.20
53368;DHT22;39271;45.618;20.024;2022-07-29T21:17:00;716.80;1843.20
53368;DHT22;39271;45.618;20.024;2022-07-29T21:19:28;716.80;1843.20
53368;DHT22;39271;45.618;20.024;2022-07-29T21:21:54;716.80;1843.20
53368;DHT22;39271;45.618;20.024;2022-07-29T21:24:23;692.10;1817.60
53368;DHT22;39271;45.618;20.024;2022-07-29T21:26:54;692.10;1817.60
53368;DHT22;39271;45.618;20.024;2022-07-29T21:33:43;692.00;1843.20
53368;DHT22;39271;45.618;20.024;2022-07-29T21:36:15;692.00;1868.80
53368;DHT22;39271;45.618;20.024;2022-07-29T21:38:41;691.90;1843.20
53368;DHT22;39271;45.618;20.024;2022-07-29T21:41:07;691.90;1868.80
53368;DHT22;39271;45.618;20.024;2022-07-29T21:43:35;691.80;1894.40
53368;DHT22;39271;45.618;20.024;2022-07-29T21:46:00;691.80;1843.20
53368;DHT22;39271;45.618;20.024;2022-07-29T21:48:27;691.80;1868.80
53368;DHT22;39271;45.618;20.024;2022-07-29T21:50:53;692.00;1868.80
53368;DHT22;39271;45.618;20.024;2022-07-29T21:53:19;691.80;1894.40
53368;DHT22;39271;45.618;20.024;2022-07-29T21:55:46;691.60;1894.40
53368;DHT22;39271;45.618;20.024;2022-07-29T21:58:12;691.60;1894.40
53368;DHT22;39271;45.618;20.024;2022-07-29T22:07:25;691.60;1868.80
53368;DHT22;39271;45.618;20.024;2022-07-29T22:09:51;691.60;1894.40
53368;DHT22;39271;45.618;20.024;2022-07-29T22:12:17;691.60;1894.40
53368;DHT22;39271;45.618;20.024;2022-07-29T22:14:46;691.50;1894.40
53368;DHT22;39271;45.618;20.024;2022-07-29T22:17:11;691.50;1920.00
53368;DHT22;39271;45.618;20.024;2022-07-29T22:19:37;691.40;1894.40
53368;DHT22;39271;45.618;20.024;2022-07-29T22:22:06;691.40;1945.60
53368;DHT22;39271;45.618;20.024;2022-07-29T22:24:31;691.30;1945.60
53368;DHT22;39271;45.618;20.024;2022-07-29T22:26:59;691.30;1945.60
53368;DHT22;39271;45.618;20.024;2022-07-29T22:29:25;691.30;1971.20
53368;DHT22;39271;45.618;20.024;2022-07-29T22:31:51;691.20;1971.20
53368;DHT22;39271;45.618;20.024;2022-07-29T22:34:17;666.50;1971.20
53368;DHT22;39271;45.618;20.024;2022-07-29T22:36:43;666.50;1971.20
53368;DHT22;39271;45.618;20.024;2022-07-29T22:39:11;666.40;1971.20
53368;DHT22;39271;45.618;20.024;2022-07-29T22:41:37;666.30;1996.80
53368;DHT22;39271;45.618;20.024;2022-07-29T22:44:12;666.40;1996.80
53368;DHT22;39271;45.618;20.024;2022-07-29T22:46:43;666.40;1996.80
53368;DHT22;39271;45.618;20.024;2022-07-29T22:49:09;666.30;1996.80
53368;DHT22;39271;45.618;20.024;2022-07-29T22:51:35;666.30;1996.80
53368;DHT22;39271;45.618;20.024;2022-07-29T22:54:02;666.40;1996.80
53368;DHT22;39271;45.618;20.024;2022-07-29T22:56:28;666.30;1996.80
53368;DHT22;39271;45.618;20.024;2022-07-29T22:58:54;666.30;2022.40
53368;DHT22;39271;45.618;20.024;2022-07-29T23:01:23;666.20;2022.40
53368;DHT22;39271;45.618;20.024;2022-07-29T23:03:49;666.20;2022.40
53368;DHT22;39271;45.618;20.024;2022-07-29T23:06:15;666.00;2048.00
53368;DHT22;39271;45.618;20.024;2022-07-29T23:08:41;666.00;2048.00
53368;DHT22;39271;45.618;20.024;2022-07-29T23:11:07;666.00;2048.00
53368;DHT22;39271;45.618;20.024;2022-07-29T23:13:33;666.00;2048.00
53368;DHT22;39271;45.618;20.024;2022-07-29T23:15:59;666.00;2048.00
53368;DHT22;39271;45.618;20.024;2022-07-29T23:18:25;665.90;2048.00
53368;DHT22;39271;45.618;20.024;2022-07-29T23:20:51;665.90;2073.60
53368;DHT22;39271;45.618;20.024;2022-07-29T23:23:22;665.80;2073.60
53368;DHT22;39271;45.618;20.024;2022-07-29T23:26:09;665.70;2099.20
53368;DHT22;39271;45.618;20.024;2022-07-29T23:28:43;665.60;2099.20
53368;DHT22;39271;45.618;20.024;2022-07-29T23:31:31;665.70;2099.20
53368;DHT22;39271;45.618;20.024;2022-07-29T23:34:11;665.70;2099.20
53368;DHT22;39271;45.618;20.024;2022-07-29T23:36:37;640.90;2073.60
53368;DHT22;39271;45.618;20.024;2022-07-29T23:39:03;640.80;2099.20
53368;DHT22;39271;45.618;20.024;2022-07-29T23:41:30;640.80;2099.20
53368;DHT22;39271;45.618;20.024;2022-07-29T23:43:56;665.60;2124.80
53368;DHT22;39271;45.618;20.024;2022-07-29T23:46:22;640.70;2099.20
53368;DHT22;39271;45.618;20.024;2022-07-29T23:48:48;640.30;2099.20
53368;DHT22;39271;45.618;20.024;2022-07-29T23:51:14;640.60;2124.80
53368;DHT22;39271;45.618;20.024;2022-07-29T23:53:40;640.50;2124.80
53368;DHT22;39271;45.618;20.024;2022-07-29T23:56:06;640.40;2124.80
53368;DHT22;39271;45.618;20.024;2022-07-29T23:58:35;640.40;2150.40
